createdAt,value
2018-12-16T00:00:18.810Z,28.93
2018-12-16T00:02:57.412Z,27.57
2018-12-16T00:05:35.423Z,28.83
2018-12-16T00:11:46.601Z,28.63
2018-12-16T00:14:24.750Z,30.03
2018-12-16T00:17:04.360Z,30.03
2018-12-16T00:19:42.494Z,29.93
2018-12-16T00:22:21.185Z,32.63
2018-12-16T00:24:59.229Z,29.87
2018-12-16T00:27:41.481Z,29.80
2018-12-16T00:30:19.194Z,32.37
2018-12-16T00:32:57.678Z,31.23
2018-12-16T00:35:35.905Z,33.53
2018-12-16T00:38:14.033Z,30.83
2018-12-16T00:40:52.199Z,31.27
2018-12-16T00:43:30.337Z,33.47
2018-12-16T00:59:05.244Z,30.77
2018-12-16T01:09:30.702Z,33.83
2018-12-16T01:12:08.783Z,34.07
2018-12-16T01:14:46.808Z,34.23
2018-12-16T01:17:24.875Z,36.03
2018-12-16T01:20:06.362Z,37.93
2018-12-16T01:22:44.498Z,34.70
2018-12-16T01:25:23.415Z,36.83
2018-12-16T01:28:03.193Z,38.03
2018-12-16T01:30:41.045Z,38.07
2018-12-16T01:33:18.343Z,36.20
2018-12-16T01:35:57.223Z,35.53
2018-12-16T01:38:35.056Z,37.30
2018-12-16T01:41:13.267Z,40.97
2018-12-16T01:43:51.275Z,38.00
2018-12-16T01:46:31.568Z,40.63
2018-12-16T01:49:09.822Z,35.10
2018-12-16T01:51:47.950Z,37.23
2018-12-16T01:54:26.474Z,36.77
2018-12-16T01:57:06.828Z,38.77
2018-12-16T01:59:44.966Z,37.90
2018-12-16T02:02:23.502Z,39.80
2018-12-16T02:05:01.758Z,39.57
2018-12-16T02:07:43.194Z,39.43
2018-12-16T02:10:21.261Z,38.60
2018-12-16T02:12:59.445Z,39.73
2018-12-16T02:15:39.645Z,42.50
2018-12-16T02:18:37.981Z,40.87
2018-12-16T02:21:16.492Z,40.27
2018-12-16T02:24:19.130Z,39.70
2018-12-16T02:26:57.506Z,39.00
2018-12-16T02:29:34.656Z,39.20
2018-12-16T02:32:12.911Z,40.73
2018-12-16T02:35:15.785Z,41.03
2018-12-16T02:37:54.206Z,38.10
2018-12-16T02:40:31.274Z,42.87
2018-12-16T02:43:09.743Z,40.00
2018-12-16T02:45:49.294Z,40.30
2018-12-16T02:48:27.396Z,40.47
2018-12-16T02:51:06.126Z,41.67
2018-12-16T02:53:44.013Z,45.77
2018-12-16T02:56:22.243Z,41.80
2018-12-16T02:58:59.675Z,38.10
2018-12-16T03:01:40.050Z,41.90
2018-12-16T03:04:18.403Z,37.90
2018-12-16T03:06:56.977Z,41.37
2018-12-16T03:09:35.987Z,40.63
2018-12-16T03:12:14.166Z,42.87
2018-12-16T03:14:52.278Z,45.47
2018-12-16T03:17:30.575Z,43.37
2018-12-16T03:20:08.992Z,48.07
2018-12-16T03:23:12.452Z,43.60
2018-12-16T03:26:16.015Z,46.50
2018-12-16T03:28:54.064Z,44.17
2018-12-16T03:31:32.456Z,43.33
2018-12-16T03:34:10.526Z,44.20
2018-12-16T03:36:48.627Z,43.03
2018-12-16T03:39:26.778Z,45.87
2018-12-16T03:42:29.967Z,46.57
2018-12-16T03:45:08.790Z,44.47
2018-12-16T03:47:46.815Z,46.30
2018-12-16T03:50:24.907Z,41.60
2018-12-16T03:53:03.078Z,47.87
2018-12-16T03:56:01.295Z,46.77
2018-12-16T03:59:44.246Z,45.30
2018-12-16T04:02:23.838Z,47.30
2018-12-16T04:05:10.191Z,50.13
2018-12-16T04:07:49.827Z,46.37
2018-12-16T04:10:28.904Z,44.70
2018-12-16T04:16:38.191Z,46.63
2018-12-16T04:19:16.573Z,45.07
2018-12-16T04:21:54.690Z,47.57
2018-12-16T04:24:33.099Z,44.20
2018-12-16T04:27:11.342Z,51.70
2018-12-16T04:30:14.553Z,45.13
2018-12-16T04:32:52.787Z,45.87
2018-12-16T04:35:30.885Z,48.30
2018-12-16T04:38:10.140Z,49.17
2018-12-16T04:40:48.249Z,44.50
2018-12-16T04:43:26.354Z,47.77
2018-12-16T04:46:04.538Z,50.63
2018-12-16T04:48:42.822Z,50.87
2018-12-16T04:51:19.418Z,48.60
2018-12-16T04:53:57.808Z,45.37
2018-12-16T04:56:37.765Z,49.27
2018-12-16T04:59:14.841Z,44.93
2018-12-16T05:01:54.269Z,51.73
2018-12-16T05:04:32.665Z,46.53
2018-12-16T05:07:11.022Z,47.07
2018-12-16T05:09:49.061Z,48.87
2018-12-16T05:12:27.265Z,50.20
2018-12-16T05:15:05.765Z,49.73
2018-12-16T05:17:44.031Z,47.37
2018-12-16T05:20:21.274Z,50.50
2018-12-16T05:22:59.450Z,49.10
2018-12-16T05:25:37.734Z,47.50
2018-12-16T05:28:15.964Z,47.83
2018-12-16T05:30:55.482Z,51.33
2018-12-16T05:33:35.209Z,47.10
2018-12-16T05:36:13.449Z,50.53
2018-12-16T05:38:51.906Z,48.67
2018-12-16T05:41:29.982Z,48.87
2018-12-16T05:44:08.000Z,44.20
2018-12-16T05:46:45.888Z,45.63
2018-12-16T05:49:24.071Z,46.33
2018-12-16T05:52:02.282Z,46.97
2018-12-16T05:54:41.847Z,48.47
2018-12-16T05:57:20.021Z,46.20
2018-12-16T05:59:59.513Z,45.07
2018-12-16T06:02:37.741Z,49.17
2018-12-16T06:05:16.750Z,46.80
2018-12-16T06:07:54.990Z,46.63
2018-12-16T06:10:32.208Z,48.53
2018-12-16T06:13:09.346Z,46.63
2018-12-16T06:15:49.531Z,45.30
2018-12-16T06:18:27.588Z,44.67
2018-12-16T06:21:06.088Z,49.57
2018-12-16T06:23:44.134Z,50.17
2018-12-16T06:26:20.720Z,47.93
2018-12-16T06:28:58.711Z,47.47
2018-12-16T06:31:35.892Z,48.00
2018-12-16T06:34:13.354Z,51.10
2018-12-16T06:36:51.411Z,45.03
2018-12-16T06:39:29.741Z,48.40
2018-12-16T06:42:08.093Z,47.70
2018-12-16T06:44:45.162Z,49.63
2018-12-16T06:47:26.859Z,47.70
2018-12-16T06:50:29.647Z,48.37
2018-12-16T06:53:07.984Z,45.70
2018-12-16T06:55:48.089Z,51.73
2018-12-16T06:58:26.109Z,48.07
2018-12-16T07:01:05.967Z,49.47
2018-12-16T07:03:43.912Z,46.30
2018-12-16T07:06:21.083Z,48.53
2018-12-16T07:08:59.426Z,44.80
2018-12-16T07:11:37.481Z,47.27
2018-12-16T07:14:20.160Z,45.10
2018-12-16T07:22:09.044Z,49.03
2018-12-16T07:24:46.108Z,47.20
2018-12-16T07:27:24.372Z,47.63
2018-12-16T07:30:02.447Z,56.20
2018-12-16T07:32:40.668Z,48.90
2018-12-16T07:35:18.794Z,46.33
2018-12-16T07:38:05.576Z,46.93
2018-12-16T07:40:43.717Z,46.23
2018-12-16T07:43:21.993Z,52.03
2018-12-16T07:46:00.606Z,47.00
2018-12-16T07:48:39.414Z,49.57
2018-12-16T07:51:19.683Z,47.67
2018-12-16T07:53:59.267Z,43.63
2018-12-16T07:56:37.536Z,48.30
2018-12-16T07:59:15.568Z,51.40
2018-12-16T08:01:53.698Z,53.27
2018-12-16T08:04:32.064Z,49.57
2018-12-16T08:07:10.409Z,46.70
2018-12-16T08:09:56.884Z,47.60
2018-12-16T08:12:34.600Z,52.03
2018-12-16T08:15:12.919Z,46.30
2018-12-16T08:17:51.167Z,47.63
2018-12-16T08:20:29.324Z,49.47
2018-12-16T08:33:28.917Z,53.27
2018-12-16T08:36:06.966Z,56.27
2018-12-16T08:38:44.722Z,56.70
2018-12-16T08:41:24.257Z,55.83
2018-12-16T08:44:02.387Z,54.00
2018-12-16T08:46:40.523Z,56.93
2018-12-16T08:49:19.023Z,56.47
2018-12-16T08:51:56.948Z,58.67
2018-12-16T08:54:35.147Z,52.73
2018-12-16T08:57:13.543Z,62.90
2018-12-16T08:59:53.528Z,62.43
2018-12-16T09:02:33.033Z,58.20
2018-12-16T09:05:12.751Z,57.60
2018-12-16T09:07:49.682Z,53.87
2018-12-16T09:10:34.246Z,61.80
2018-12-16T09:13:12.702Z,58.07
2018-12-16T09:15:50.538Z,58.40
2018-12-16T09:18:28.546Z,59.60
2018-12-16T09:21:06.869Z,59.17
2018-12-16T09:23:45.275Z,60.40
2018-12-16T09:26:23.509Z,58.87
2018-12-16T09:29:01.481Z,61.87
2018-12-16T09:31:39.925Z,62.73
2018-12-16T09:34:18.057Z,60.87
2018-12-16T09:42:09.145Z,61.50
2018-12-16T09:44:48.976Z,63.40
2018-12-16T09:47:27.222Z,69.27
2018-12-16T09:50:07.542Z,64.37
2018-12-16T09:52:45.585Z,60.80
2018-12-16T09:55:31.962Z,59.97
2018-12-16T09:58:09.852Z,59.63
2018-12-16T10:00:48.003Z,74.67
2018-12-16T10:03:26.176Z,60.17
2018-12-16T10:06:12.987Z,64.50
2018-12-16T10:08:52.655Z,61.33
2018-12-16T10:11:30.848Z,71.87
2018-12-16T10:14:10.687Z,59.60
2018-12-16T10:16:48.099Z,66.57
2018-12-16T10:19:25.954Z,66.67
2018-12-16T10:22:04.144Z,61.53
2018-12-16T10:24:42.399Z,66.37
2018-12-16T10:27:20.557Z,64.47
2018-12-16T10:29:59.151Z,64.40
2018-12-16T10:32:37.769Z,64.60
2018-12-16T10:35:18.267Z,78.10
2018-12-16T10:37:56.768Z,66.87
2018-12-16T10:48:21.892Z,64.03
2018-12-16T10:50:59.979Z,75.97
2018-12-16T10:53:37.939Z,71.87
2018-12-16T10:56:16.074Z,68.20
2018-12-16T10:58:54.595Z,74.70
2018-12-16T11:01:33.594Z,62.13
2018-12-16T11:04:11.709Z,67.63
2018-12-16T11:06:49.951Z,80.27
2018-12-16T11:09:28.030Z,65.03
2018-12-16T11:12:06.491Z,74.53
2018-12-16T11:14:44.387Z,64.57
2018-12-16T11:17:22.687Z,71.93
2018-12-16T11:20:00.966Z,69.03
2018-12-16T11:22:38.486Z,69.60
2018-12-16T11:25:17.523Z,65.00
2018-12-16T11:28:20.548Z,64.97
2018-12-16T11:31:00.877Z,61.77
2018-12-16T11:33:41.788Z,75.00
2018-12-16T11:36:21.319Z,64.07
2018-12-16T11:39:01.749Z,65.90
2018-12-16T11:41:39.756Z,69.70
2018-12-16T11:44:18.083Z,73.27
2018-12-16T11:49:31.583Z,61.80
2018-12-16T11:52:09.885Z,63.90
2018-12-16T11:58:43.586Z,71.67
2018-12-16T12:01:21.784Z,63.60
2018-12-16T12:04:03.282Z,61.77
2018-12-16T12:06:41.681Z,70.47
2018-12-16T12:09:19.791Z,66.30
2018-12-16T12:11:57.994Z,72.90
2018-12-16T12:14:36.917Z,78.67
2018-12-16T12:20:47.403Z,77.13
2018-12-16T12:26:56.343Z,75.80
2018-12-16T12:29:34.444Z,80.00
2018-12-16T12:32:11.912Z,68.03
2018-12-16T12:34:52.316Z,65.57
2018-12-16T12:37:30.549Z,77.57
2018-12-16T12:40:08.702Z,76.33
2018-12-16T12:42:46.683Z,77.13
2018-12-16T12:45:24.749Z,77.57
2018-12-16T12:50:40.479Z,75.27
2018-12-16T12:53:20.321Z,84.50
2018-12-16T12:55:58.634Z,80.57
2018-12-16T12:58:36.894Z,81.27
2018-12-16T13:01:15.304Z,72.83
2018-12-16T13:03:53.422Z,88.23
2018-12-16T13:06:56.380Z,92.23
2018-12-16T13:09:34.700Z,72.80
2018-12-16T13:12:12.521Z,76.80
2018-12-16T13:14:50.805Z,66.27
2018-12-16T13:17:28.064Z,76.83
2018-12-16T13:20:06.600Z,64.20
2018-12-16T13:22:46.318Z,78.77
2018-12-16T13:25:35.712Z,96.60
2018-12-16T13:28:14.964Z,72.03
2018-12-16T13:30:52.965Z,73.43
2018-12-16T13:33:31.237Z,76.60
2018-12-16T13:36:11.115Z,62.33
2018-12-16T13:42:18.630Z,87.87
2018-12-16T13:44:56.962Z,79.17
2018-12-16T13:47:39.838Z,76.30
2018-12-16T13:58:06.128Z,83.77
2018-12-16T14:01:08.651Z,85.40
2018-12-16T14:03:48.192Z,79.37
2018-12-16T14:06:26.030Z,99.00
2018-12-16T14:09:07.578Z,82.13
2018-12-16T14:12:10.187Z,76.97
2018-12-16T14:14:49.077Z,87.53
2018-12-16T14:17:26.755Z,86.17
2018-12-16T14:23:34.927Z,74.23
2018-12-16T14:29:43.136Z,75.50
2018-12-16T14:32:45.891Z,93.40
2018-12-16T14:35:27.871Z,102.63
2018-12-16T14:38:06.099Z,73.53
2018-12-16T14:40:44.100Z,99.90
2018-12-16T14:43:46.975Z,94.37
2018-12-16T14:46:30.607Z,89.80
2018-12-16T14:49:08.536Z,84.50
2018-12-16T14:51:46.671Z,100.10
2018-12-16T15:03:04.533Z,103.73
2018-12-16T15:09:21.287Z,98.80
2018-12-16T15:12:00.979Z,114.87
2018-12-16T15:14:40.130Z,110.90
2018-12-16T15:17:18.186Z,114.33
2018-12-16T15:20:21.202Z,113.67
2018-12-16T15:22:59.543Z,122.07
2018-12-16T15:26:02.754Z,126.97
2018-12-16T15:28:42.925Z,136.67
2018-12-16T15:31:21.373Z,153.97
2018-12-16T15:34:24.150Z,153.87
2018-12-16T15:37:06.815Z,136.33
2018-12-16T15:39:46.525Z,144.80
2018-12-16T15:42:49.489Z,155.77
2018-12-16T15:45:29.022Z,157.87
2018-12-16T15:48:32.839Z,139.93
2018-12-16T15:51:32.852Z,111.70
2018-12-16T15:54:10.805Z,107.23
2018-12-16T15:56:49.311Z,106.83
2018-12-16T15:59:53.307Z,143.60
2018-12-16T16:02:32.252Z,133.47
2018-12-16T16:07:43.867Z,121.87
2018-12-16T16:10:21.380Z,114.67
2018-12-16T16:12:59.530Z,120.90
2018-12-16T16:15:37.573Z,116.23
2018-12-16T16:18:14.680Z,137.20
2018-12-16T16:21:17.806Z,120.97
2018-12-16T16:23:56.070Z,104.53
2018-12-16T16:26:58.918Z,112.70
2018-12-16T16:30:02.097Z,113.70
2018-12-16T16:32:48.509Z,115.20
2018-12-16T16:35:26.391Z,102.13
2018-12-16T16:38:07.153Z,145.30
2018-12-16T16:40:46.606Z,122.93
2018-12-16T16:43:24.803Z,111.43
2018-12-16T16:46:04.350Z,107.90
2018-12-16T16:48:44.314Z,108.80
2018-12-16T16:51:22.675Z,109.70
2018-12-16T16:54:00.770Z,102.73
2018-12-16T16:56:39.170Z,96.70
2018-12-16T16:59:43.072Z,110.83
2018-12-16T17:02:21.343Z,97.43
2018-12-16T17:04:59.654Z,131.27
2018-12-16T17:08:02.532Z,93.37
2018-12-16T17:10:41.054Z,106.00
2018-12-16T17:13:27.201Z,112.10
2018-12-16T17:16:29.518Z,102.87
2018-12-16T17:22:36.775Z,85.07
2018-12-16T17:25:14.981Z,91.03
2018-12-16T17:27:53.162Z,89.63
2018-12-16T17:30:32.994Z,85.93
2018-12-16T17:33:15.704Z,86.20
2018-12-16T17:36:18.314Z,94.93
2018-12-16T17:38:56.390Z,92.43
2018-12-16T17:41:36.811Z,83.87
2018-12-16T17:44:39.718Z,92.17
2018-12-16T17:47:42.880Z,86.80
2018-12-16T17:50:46.039Z,84.80
2018-12-16T17:53:50.050Z,62.53
2018-12-16T17:56:37.011Z,87.23
2018-12-16T17:59:17.935Z,83.87
2018-12-16T18:02:17.595Z,92.73
2018-12-16T18:05:16.375Z,85.37
2018-12-16T18:11:52.345Z,80.97
2018-12-16T18:14:30.548Z,86.40
2018-12-16T18:17:12.314Z,71.87
2018-12-16T18:19:49.132Z,77.50
2018-12-16T18:22:27.275Z,81.80
2018-12-16T18:25:06.108Z,81.43
2018-12-16T18:27:46.914Z,75.83
2018-12-16T18:37:30.859Z,75.97
2018-12-16T18:40:13.899Z,67.03
2018-12-16T18:43:06.051Z,66.60
2018-12-16T18:46:09.817Z,83.30
2018-12-16T18:52:44.286Z,63.70
2018-12-16T18:55:47.238Z,64.37
2018-12-16T18:58:49.492Z,70.40
2018-12-16T19:01:32.320Z,51.83
2018-12-16T19:04:35.387Z,55.60
2018-12-16T19:07:38.451Z,59.00
2018-12-16T19:10:16.917Z,54.27
2018-12-16T19:13:16.651Z,58.23
2018-12-16T19:19:49.375Z,55.97
2018-12-16T19:26:24.194Z,58.63
2018-12-16T19:29:02.584Z,59.00
2018-12-16T19:31:48.826Z,73.37
2018-12-16T19:34:51.489Z,62.77
2018-12-16T19:37:29.877Z,50.57
2018-12-16T19:40:15.028Z,51.63
2018-12-16T19:46:23.863Z,52.53
2018-12-16T19:49:22.803Z,57.27
2018-12-16T19:52:02.171Z,63.83
2018-12-16T19:54:44.595Z,65.13
2018-12-16T19:57:26.887Z,57.13
2018-12-16T20:00:08.390Z,59.33
2018-12-16T20:09:49.334Z,50.03
2018-12-16T20:12:31.663Z,65.53
2018-12-16T20:18:40.404Z,58.50
2018-12-16T20:24:49.665Z,60.10
2018-12-16T20:27:53.345Z,64.00
2018-12-16T20:37:32.851Z,80.17
2018-12-16T20:40:35.513Z,73.43
2018-12-16T20:43:12.889Z,61.60
2018-12-16T20:45:50.883Z,59.47
2018-12-16T20:48:29.231Z,57.00
2018-12-16T20:54:37.698Z,63.10
2018-12-16T20:57:18.910Z,62.67
2018-12-16T21:00:21.575Z,76.97
2018-12-16T21:03:24.395Z,65.23
2018-12-16T21:06:02.539Z,72.97
2018-12-16T21:08:41.040Z,74.40
2018-12-16T21:11:24.585Z,84.13
2018-12-16T21:16:13.917Z,67.60
2018-12-16T21:18:52.125Z,71.30
2018-12-16T21:21:30.990Z,68.60
2018-12-16T21:24:09.221Z,71.93
2018-12-16T21:27:12.881Z,52.63
2018-12-16T21:29:52.065Z,47.80
2018-12-16T21:32:33.907Z,41.33
2018-12-16T21:35:13.501Z,50.73
2018-12-16T21:41:25.973Z,54.63
2018-12-16T21:51:28.176Z,51.87
2018-12-16T21:54:14.659Z,57.47
2018-12-16T21:56:54.317Z,69.40
2018-12-16T21:59:32.644Z,76.40
2018-12-16T22:02:10.552Z,66.67
2018-12-16T22:11:53.679Z,47.53
2018-12-16T22:14:34.909Z,68.30
2018-12-16T22:17:16.342Z,64.13
2018-12-16T22:23:48.634Z,56.97
2018-12-16T22:26:27.158Z,55.33
2018-12-16T22:29:30.935Z,65.93
2018-12-16T22:32:09.703Z,53.27
2018-12-16T22:34:46.628Z,66.57
2018-12-16T22:37:50.217Z,61.47
2018-12-16T22:40:29.146Z,57.30
2018-12-16T22:43:31.722Z,60.37
2018-12-16T22:46:10.190Z,64.07
2018-12-16T22:49:12.890Z,77.43
2018-12-16T22:55:22.380Z,79.20
2018-12-16T23:01:55.867Z,64.67
2018-12-16T23:08:08.727Z,66.23
2018-12-16T23:11:12.411Z,60.67
2018-12-16T23:17:22.809Z,63.30
2018-12-16T23:20:19.745Z,62.73
2018-12-16T23:26:31.930Z,59.80
2018-12-16T23:29:10.115Z,60.80
2018-12-16T23:31:51.700Z,69.23
2018-12-16T23:38:00.702Z,53.93
2018-12-16T23:47:42.824Z,52.40
2018-12-16T23:50:23.779Z,52.90
2018-12-16T23:53:02.286Z,53.90
2018-12-16T23:56:06.133Z,51.00
2018-12-16T23:59:08.516Z,60.90
